sensor_id;sensor_type;location;lat;lon;timestamp;pressure;altitude;pressure_sealevel;temperature;humidity
6224;BME280;3145;42.726;23.342;2023-03-14T00:00:47;95624.38;;;3.37;55.15
6224;BME280;3145;42.726;23.342;2023-03-14T00:03:14;95593.50;;;3.21;55.37
6224;BME280;3145;42.726;23.342;2023-03-14T00:05:41;95613.88;;;3.27;55.69
6224;BME280;3145;42.726;23.342;2023-03-14T00:08:07;95604.63;;;3.23;56.34
6224;BME280;3145;42.726;23.342;2023-03-14T00:10:36;95603.94;;;3.21;56.05
6224;BME280;3145;42.726;23.342;2023-03-14T00:13:04;95466.81;;;2.37;55.83
6224;BME280;3145;42.726;23.342;2023-03-14T00:15:32;95593.69;;;3.09;56.68
6224;BME280;3145;42.726;23.342;2023-03-14T00:17:58;95594.91;;;3.05;56.90
6224;BME280;3145;42.726;23.342;2023-03-14T00:20:25;95574.59;;;2.88;57.03
6224;BME280;3145;42.726;23.342;2023-03-14T00:22:52;95585.63;;;2.91;56.94
6224;BME280;3145;42.726;23.342;2023-03-14T00:25:19;95585.66;;;2.80;57.47
6224;BME280;3145;42.726;23.342;2023-03-14T00:27:46;95568.09;;;2.62;58.39
6224;BME280;3145;42.726;23.342;2023-03-14T00:30:14;95560.66;;;2.57;58.52
6224;BME280;3145;42.726;23.342;2023-03-14T00:32:41;95534.22;;;2.30;58.43
6224;BME280;3145;42.726;23.342;2023-03-14T00:35:08;95566.69;;;2.58;58.94
6224;BME280;3145;42.726;23.342;2023-03-14T00:37:35;95439.28;;;1.71;59.19
6224;BME280;3145;42.726;23.342;2023-03-14T00:40:02;95564.69;;;2.50;59.30
6224;BME280;3145;42.726;23.342;2023-03-14T00:42:31;95339.03;;;1.14;59.55
6224;BME280;3145;42.726;23.342;2023-03-14T00:44:58;95469.00;;;1.89;59.19
6224;BME280;3145;42.726;23.342;2023-03-14T00:47:26;95528.56;;;2.25;59.41
6224;BME280;3145;42.726;23.342;2023-03-14T00:49:53;95558.09;;;2.46;59.66
6224;BME280;3145;42.726;23.342;2023-03-14T00:52:20;95549.13;;;2.39;58.98
6224;BME280;3145;42.726;23.342;2023-03-14T00:54:46;95544.84;;;2.38;58.75
6224;BME280;3145;42.726;23.342;2023-03-14T00:57:13;95537.34;;;2.24;58.89
6224;BME280;3145;42.726;23.342;2023-03-14T00:59:40;95549.56;;;2.44;59.52
6224;BME280;3145;42.726;23.342;2023-03-14T01:02:07;95550.25;;;2.46;58.88
6224;BME280;3145;42.726;23.342;2023-03-14T01:04:35;95499.69;;;2.17;59.54
6224;BME280;3145;42.726;23.342;2023-03-14T01:07:03;95500.28;;;2.21;59.58
6224;BME280;3145;42.726;23.342;2023-03-14T01:09:29;95542.19;;;2.49;58.98
6224;BME280;3145;42.726;23.342;2023-03-14T01:11:56;95528.28;;;2.39;58.68
6224;BME280;3145;42.726;23.342;2023-03-14T01:14:23;95538.50;;;2.52;59.29
6224;BME280;3145;42.726;23.342;2023-03-14T01:16:50;95537.22;;;2.46;59.68
6224;BME280;3145;42.726;23.342;2023-03-14T01:19:16;95515.94;;;2.41;59.31
6224;BME280;3145;42.726;23.342;2023-03-14T01:21:44;95499.59;;;2.39;59.29
6224;BME280;3145;42.726;23.342;2023-03-14T01:24:11;95524.16;;;2.57;59.23
6224;BME280;3145;42.726;23.342;2023-03-14T01:26:38;95527.59;;;2.58;59.09
6224;BME280;3145;42.726;23.342;2023-03-14T01:29:05;95525.53;;;2.61;59.09
6224;BME280;3145;42.726;23.342;2023-03-14T01:31:31;95518.03;;;2.68;58.96
6224;BME280;3145;42.726;23.342;2023-03-14T01:33:58;95513.22;;;2.63;59.33
6224;BME280;3145;42.726;23.342;2023-03-14T01:36:25;95466.94;;;2.35;59.16
6224;BME280;3145;42.726;23.342;2023-03-14T01:38:53;95481.28;;;2.50;59.02
6224;BME280;3145;42.726;23.342;2023-03-14T01:41:22;95490.91;;;2.50;59.33
6224;BME280;3145;42.726;23.342;2023-03-14T01:43:49;95511.56;;;2.62;60.27
6224;BME280;3145;42.726;23.342;2023-03-14T01:46:23;95487.44;;;2.49;60.30
6224;BME280;3145;42.726;23.342;2023-03-14T01:48:59;95486.84;;;2.57;60.04
6224;BME280;3145;42.726;23.342;2023-03-14T01:51:29;95500.19;;;2.63;60.05
6224;BME280;3145;42.726;23.342;2023-03-14T01:54:03;95499.22;;;2.64;60.14
6224;BME280;3145;42.726;23.342;2023-03-14T01:56:31;95484.09;;;2.58;60.85
6224;BME280;3145;42.726;23.342;2023-03-14T01:59:00;95482.66;;;2.54;61.03
6224;BME280;3145;42.726;23.342;2023-03-14T02:01:28;95498.06;;;2.57;60.83
6224;BME280;3145;42.726;23.342;2023-03-14T02:03:56;95495.88;;;2.53;61.19
6224;BME280;3145;42.726;23.342;2023-03-14T02:06:30;95495.28;;;2.49;60.67
6224;BME280;3145;42.726;23.342;2023-03-14T02:09:00;95492.66;;;2.49;61.49
6224;BME280;3145;42.726;23.342;2023-03-14T02:11:28;95447.59;;;2.17;61.70
6224;BME280;3145;42.726;23.342;2023-03-14T02:13:56;95470.03;;;2.29;61.57
6224;BME280;3145;42.726;23.342;2023-03-14T02:16:24;95490.69;;;2.42;62.12
6224;BME280;3145;42.726;23.342;2023-03-14T02:18:51;95492.72;;;2.38;62.13
6224;BME280;3145;42.726;23.342;2023-03-14T02:21:22;95473.16;;;2.23;62.76
6224;BME280;3145;42.726;23.342;2023-03-14T02:23:56;95478.94;;;2.27;63.36
6224;BME280;3145;42.726;23.342;2023-03-14T02:26:31;95482.84;;;2.21;63.56
6224;BME280;3145;42.726;23.342;2023-03-14T02:29:02;95454.34;;;1.88;64.08
6224;BME280;3145;42.726;23.342;2023-03-14T02:31:29;95486.56;;;1.87;65.40
6224;BME280;3145;42.726;23.342;2023-03-14T02:33:56;95491.78;;;1.87;65.59
6224;BME280;3145;42.726;23.342;2023-03-14T02:36:24;95495.56;;;1.83;66.61
6224;BME280;3145;42.726;23.342;2023-03-14T02:38:55;95463.69;;;1.48;67.65
6224;BME280;3145;42.726;23.342;2023-03-14T02:41:25;95486.16;;;1.60;68.38
6224;BME280;3145;42.726;23.342;2023-03-14T02:43:52;95482.38;;;1.53;68.78
6224;BME280;3145;42.726;23.342;2023-03-14T02:46:21;95454.72;;;1.41;68.45
6224;BME280;3145;42.726;23.342;2023-03-14T02:48:51;95503.53;;;1.60;69.10
6224;BME280;3145;42.726;23.342;2023-03-14T02:51:19;95457.66;;;1.37;68.95
6224;BME280;3145;42.726;23.342;2023-03-14T02:53:46;95359.66;;;0.73;68.79
6224;BME280;3145;42.726;23.342;2023-03-14T02:56:13;95450.94;;;1.34;68.83
6224;BME280;3145;42.726;23.342;2023-03-14T02:58:40;95494.19;;;1.57;69.05
6224;BME280;3145;42.726;23.342;2023-03-14T03:01:07;95505.34;;;1.59;70.20
6224;BME280;3145;42.726;23.342;2023-03-14T03:03:35;95393.31;;;0.96;70.13
6224;BME280;3145;42.726;23.342;2023-03-14T03:06:01;95496.22;;;1.54;70.67
6224;BME280;3145;42.726;23.342;2023-03-14T03:08:28;95488.06;;;1.47;69.96
6224;BME280;3145;42.726;23.342;2023-03-14T03:10:56;95494.31;;;1.56;70.05
6224;BME280;3145;42.726;23.342;2023-03-14T03:13:23;95468.22;;;1.35;70.63
6224;BME280;3145;42.726;23.342;2023-03-14T03:15:50;95498.22;;;1.50;70.58
6224;BME280;3145;42.726;23.342;2023-03-14T03:18:17;95453.56;;;1.23;70.99
6224;BME280;3145;42.726;23.342;2023-03-14T03:20:45;95499.06;;;1.51;70.41
6224;BME280;3145;42.726;23.342;2023-03-14T03:23:12;95499.91;;;1.51;71.45
6224;BME280;3145;42.726;23.342;2023-03-14T03:25:39;95487.81;;;1.50;70.89
6224;BME280;3145;42.726;23.342;2023-03-14T03:28:05;95474.56;;;1.42;70.49
6224;BME280;3145;42.726;23.342;2023-03-14T03:30:34;95489.72;;;1.48;71.14
6224;BME280;3145;42.726;23.342;2023-03-14T03:33:03;95499.91;;;1.51;70.77
6224;BME280;3145;42.726;23.342;2023-03-14T03:35:30;95491.38;;;1.49;71.34
6224;BME280;3145;42.726;23.342;2023-03-14T03:37:58;95490.69;;;1.47;71.03
6224;BME280;3145;42.726;23.342;2023-03-14T03:40:25;95486.41;;;1.46;71.17
6224;BME280;3145;42.726;23.342;2023-03-14T03:42:51;95469.88;;;1.36;70.65
6224;BME280;3145;42.726;23.342;2023-03-14T03:45:18;95468.22;;;1.35;71.46
6224;BME280;3145;42.726;23.342;2023-03-14T03:47:45;95491.38;;;1.38;71.17
6224;BME280;3145;42.726;23.342;2023-03-14T03:50:11;95454.28;;;1.14;71.57
6224;BME280;3145;42.726;23.342;2023-03-14T03:52:38;95504.16;;;1.41;71.58
6224;BME280;3145;42.726;23.342;2023-03-14T03:55:07;95446.25;;;1.06;71.27
6224;BME280;3145;42.726;23.342;2023-03-14T03:57:34;95502.50;;;1.40;72.26
6224;BME280;3145;42.726;23.342;2023-03-14T04:00:01;95498.94;;;1.41;71.34
6224;BME280;3145;42.726;23.342;2023-03-14T04:02:30;95497.78;;;1.34;71.71
6224;BME280;3145;42.726;23.342;2023-03-14T04:04:56;95476.03;;;1.13;71.34
6224;BME280;3145;42.726;23.342;2023-03-14T04:07:23;95462.69;;;1.07;72.08
6224;BME280;3145;42.726;23.342;2023-03-14T04:09:50;95496.84;;;1.24;72.51
6224;BME280;3145;42.726;23.342;2023-03-14T04:12:18;95495.44;;;1.20;73.04
6224;BME280;3145;42.726;23.342;2023-03-14T04:14:45;95496.50;;;1.18;72.99
6224;BME280;3145;42.726;23.342;2023-03-14T04:17:12;95447.34;;;0.82;73.73
6224;BME280;3145;42.726;23.342;2023-03-14T04:19:38;95476.03;;;1.02;72.83
6224;BME280;3145;42.726;23.342;2023-03-14T04:22:06;95426.31;;;0.74;73.08
6224;BME280;3145;42.726;23.342;2023-03-14T04:24:32;95477.22;;;1.09;74.02
6224;BME280;3145;42.726;23.342;2023-03-14T04:26:59;95484.78;;;1.12;73.25
6224;BME280;3145;42.726;23.342;2023-03-14T04:29:27;95480.50;;;1.11;73.28
6224;BME280;3145;42.726;23.342;2023-03-14T04:31:54;95477.81;;;1.13;73.57
6224;BME280;3145;42.726;23.342;2023-03-14T04:34:20;95468.22;;;1.13;73.78
6224;BME280;3145;42.726;23.342;2023-03-14T04:36:47;95471.31;;;1.18;73.86
6224;BME280;3145;42.726;23.342;2023-03-14T04:39:14;95439.41;;;1.05;73.32
6224;BME280;3145;42.726;23.342;2023-03-14T04:41:40;95427.81;;;0.98;73.61
6224;BME280;3145;42.726;23.342;2023-03-14T04:44:07;95437.25;;;1.10;72.79
6224;BME280;3145;42.726;23.342;2023-03-14T04:46:35;95452.75;;;1.23;74.10
6224;BME280;3145;42.726;23.342;2023-03-14T04:49:02;95455.91;;;1.37;74.87
6224;BME280;3145;42.726;23.342;2023-03-14T04:51:29;95449.41;;;1.74;92.38
6224;BME280;3145;42.726;23.342;2023-03-14T04:53:55;95455.91;;;2.11;94.68
6224;BME280;3145;42.726;23.342;2023-03-14T04:56:22;95391.47;;;2.13;91.70
6224;BME280;3145;42.726;23.342;2023-03-14T04:58:49;95430.69;;;2.83;90.41
6224;BME280;3145;42.726;23.342;2023-03-14T05:01:16;95454.47;;;3.19;86.87
6224;BME280;3145;42.726;23.342;2023-03-14T05:03:44;95449.03;;;3.32;85.70
6224;BME280;3145;42.726;23.342;2023-03-14T05:06:11;95398.97;;;3.17;82.29
6224;BME280;3145;42.726;23.342;2023-03-14T05:08:37;95429.00;;;3.51;88.67
6224;BME280;3145;42.726;23.342;2023-03-14T05:11:05;95434.78;;;3.64;86.04
6224;BME280;3145;42.726;23.342;2023-03-14T05:13:32;95452.13;;;3.75;81.94
6224;BME280;3145;42.726;23.342;2023-03-14T05:16:06;95389.75;;;3.72;84.27
6224;BME280;3145;42.726;23.342;2023-03-14T05:18:33;95436.66;;;4.76;84.36
6224;BME280;3145;42.726;23.342;2023-03-14T05:21:02;95442.47;;;5.44;80.12
6224;BME280;3145;42.726;23.342;2023-03-14T05:23:29;95447.81;;;5.79;67.33
6224;BME280;3145;42.726;23.342;2023-03-14T05:25:56;95437.97;;;6.08;58.83
6224;BME280;3145;42.726;23.342;2023-03-14T05:28:23;95443.50;;;6.40;57.00
6224;BME280;3145;42.726;23.342;2023-03-14T05:30:50;95444.47;;;6.56;55.40
6224;BME280;3145;42.726;23.342;2023-03-14T05:33:17;95414.16;;;6.19;54.00
6224;BME280;3145;42.726;23.342;2023-03-14T05:35:44;95409.22;;;5.98;55.05
6224;BME280;3145;42.726;23.342;2023-03-14T05:38:12;95445.25;;;6.14;54.79
6224;BME280;3145;42.726;23.342;2023-03-14T05:40:38;95411.72;;;6.43;54.22
6224;BME280;3145;42.726;23.342;2023-03-14T05:43:05;95448.06;;;6.73;52.57
6224;BME280;3145;42.726;23.342;2023-03-14T05:45:33;95442.44;;;6.93;52.21
6224;BME280;3145;42.726;23.342;2023-03-14T05:48:00;95430.28;;;7.18;51.41
6224;BME280;3145;42.726;23.342;2023-03-14T05:50:27;95448.00;;;7.16;50.76
6224;BME280;3145;42.726;23.342;2023-03-14T05:52:54;95443.09;;;7.21;51.56
6224;BME280;3145;42.726;23.342;2023-03-14T05:55:22;95370.69;;;6.59;49.80
6224;BME280;3145;42.726;23.342;2023-03-14T05:57:49;95452.53;;;7.06;50.38
6224;BME280;3145;42.726;23.342;2023-03-14T06:00:16;95320.81;;;6.59;48.80
6224;BME280;3145;42.726;23.342;2023-03-14T06:02:43;95438.53;;;6.97;48.64
6224;BME280;3145;42.726;23.342;2023-03-14T06:05:10;95447.81;;;7.09;48.56
6224;BME280;3145;42.726;23.342;2023-03-14T06:07:36;95412.03;;;7.16;48.72
6224;BME280;3145;42.726;23.342;2023-03-14T06:10:04;95421.91;;;7.48;47.21
6224;BME280;3145;42.726;23.342;2023-03-14T06:12:33;95424.16;;;7.43;46.93
6224;BME280;3145;42.726;23.342;2023-03-14T06:14:59;95427.56;;;7.35;47.90
6224;BME280;3145;42.726;23.342;2023-03-14T06:17:26;95434.41;;;6.95;48.76
6224;BME280;3145;42.726;23.342;2023-03-14T06:19:53;95423.03;;;7.12;48.73
6224;BME280;3145;42.726;23.342;2023-03-14T06:22:19;95446.09;;;7.59;48.80
6224;BME280;3145;42.726;23.342;2023-03-14T06:24:46;95434.16;;;7.81;48.00
6224;BME280;3145;42.726;23.342;2023-03-14T06:27:13;95248.91;;;6.86;46.35
6224;BME280;3145;42.726;23.342;2023-03-14T06:29:42;95411.13;;;8.40;45.28
6224;BME280;3145;42.726;23.342;2023-03-14T06:32:09;95413.56;;;8.42;44.16
6224;BME280;3145;42.726;23.342;2023-03-14T06:34:36;95445.78;;;9.24;43.42
6224;BME280;3145;42.726;23.342;2023-03-14T06:37:04;95405.94;;;9.11;42.78
6224;BME280;3145;42.726;23.342;2023-03-14T06:39:31;95432.56;;;9.32;42.12
6224;BME280;3145;42.726;23.342;2023-03-14T06:41:57;95428.16;;;9.16;43.00
6224;BME280;3145;42.726;23.342;2023-03-14T06:44:24;95434.00;;;9.50;41.96
6224;BME280;3145;42.726;23.342;2023-03-14T06:46:52;95423.75;;;9.55;41.52
6224;BME280;3145;42.726;23.342;2023-03-14T06:49:19;95428.50;;;9.60;41.27
6224;BME280;3145;42.726;23.342;2023-03-14T06:51:46;95421.53;;;10.36;40.94
6224;BME280;3145;42.726;23.342;2023-03-14T06:54:13;95421.41;;;10.30;39.94
6224;BME280;3145;42.726;23.342;2023-03-14T06:56:39;95414.84;;;10.48;39.72
6224;BME280;3145;42.726;23.342;2023-03-14T06:59:06;95416.97;;;10.53;40.09
6224;BME280;3145;42.726;23.342;2023-03-14T07:01:33;95412.09;;;11.01;38.75
6224;BME280;3145;42.726;23.342;2023-03-14T07:04:02;95399.91;;;10.78;38.53
6224;BME280;3145;42.726;23.342;2023-03-14T07:06:29;95392.75;;;9.88;40.30
6224;BME280;3145;42.726;23.342;2023-03-14T07:08:56;95397.34;;;10.25;40.12
6224;BME280;3145;42.726;23.342;2023-03-14T07:11:23;95323.75;;;9.99;39.76
6224;BME280;3145;42.726;23.342;2023-03-14T07:13:50;95378.09;;;10.39;39.24
6224;BME280;3145;42.726;23.342;2023-03-14T07:16:17;95156.28;;;8.74;39.28
6224;BME280;3145;42.726;23.342;2023-03-14T07:18:43;95396.06;;;9.90;39.85
6224;BME280;3145;42.726;23.342;2023-03-14T07:21:12;95402.97;;;9.91;40.28
6224;BME280;3145;42.726;23.342;2023-03-14T07:23:39;95327.84;;;10.02;41.45
6224;BME280;3145;42.726;23.342;2023-03-14T07:26:06;95276.41;;;10.20;40.67
6224;BME280;3145;42.726;23.342;2023-03-14T07:28:33;95383.47;;;11.19;38.69
6224;BME280;3145;42.726;23.342;2023-03-14T07:30:59;95363.03;;;11.71;38.31
6224;BME280;3145;42.726;23.342;2023-03-14T07:33:26;95387.72;;;12.28;36.11
6224;BME280;3145;42.726;23.342;2023-03-14T07:35:53;95392.78;;;12.65;35.11
6224;BME280;3145;42.726;23.342;2023-03-14T07:38:21;95381.78;;;12.47;34.14
6224;BME280;3145;42.726;23.342;2023-03-14T07:40:48;95387.78;;;11.99;35.16
6224;BME280;3145;42.726;23.342;2023-03-14T07:43:15;95372.06;;;11.48;35.97
6224;BME280;3145;42.726;23.342;2023-03-14T07:45:45;95378.91;;;11.42;35.25
6224;BME280;3145;42.726;23.342;2023-03-14T07:48:12;95338.22;;;9.81;37.68
6224;BME280;3145;42.726;23.342;2023-03-14T07:50:38;95358.44;;;9.66;37.97
6224;BME280;3145;42.726;23.342;2023-03-14T07:53:05;95110.41;;;8.61;37.79
6224;BME280;3145;42.726;23.342;2023-03-14T07:55:33;95337.53;;;10.54;37.48
6224;BME280;3145;42.726;23.342;2023-03-14T07:58:00;95294.28;;;10.84;36.16
6224;BME280;3145;42.726;23.342;2023-03-14T08:00:27;95354.72;;;11.74;36.06
6224;BME280;3145;42.726;23.342;2023-03-14T08:02:54;95360.56;;;11.84;35.61
6224;BME280;3145;42.726;23.342;2023-03-14T08:05:20;95366.47;;;11.86;34.97
6224;BME280;3145;42.726;23.342;2023-03-14T08:07:47;95367.31;;;11.29;35.10
6224;BME280;3145;42.726;23.342;2023-03-14T08:10:14;95365.06;;;10.15;37.30
6224;BME280;3145;42.726;23.342;2023-03-14T08:12:49;95362.66;;;10.05;37.81
6224;BME280;3145;42.726;23.342;2023-03-14T08:15:16;95330.31;;;10.03;36.96
6224;BME280;3145;42.726;23.342;2023-03-14T08:17:42;95338.22;;;10.11;37.97
6224;BME280;3145;42.726;23.342;2023-03-14T08:20:10;95342.16;;;10.52;37.50
6224;BME280;3145;42.726;23.342;2023-03-14T08:22:38;95327.56;;;10.93;37.42
6224;BME280;3145;42.726;23.342;2023-03-14T08:25:06;95330.28;;;11.29;37.32
6224;BME280;3145;42.726;23.342;2023-03-14T08:27:32;95358.81;;;11.04;36.66
6224;BME280;3145;42.726;23.342;2023-03-14T08:30:01;95349.44;;;11.45;36.10
6224;BME280;3145;42.726;23.342;2023-03-14T08:32:27;95357.38;;;11.74;34.80
6224;BME280;3145;42.726;23.342;2023-03-14T08:34:54;95346.56;;;11.90;33.77
6224;BME280;3145;42.726;23.342;2023-03-14T08:37:21;95323.81;;;11.31;36.14
6224;BME280;3145;42.726;23.342;2023-03-14T08:39:49;95328.75;;;11.34;35.48
6224;BME280;3145;42.726;23.342;2023-03-14T08:42:16;95339.78;;;11.23;34.88
6224;BME280;3145;42.726;23.342;2023-03-14T08:44:43;95239.50;;;10.93;35.27
6224;BME280;3145;42.726;23.342;2023-03-14T08:47:11;95330.03;;;11.09;36.72
6224;BME280;3145;42.726;23.342;2023-03-14T08:49:38;95244.16;;;11.05;36.53
6224;BME280;3145;42.726;23.342;2023-03-14T08:52:05;95307.72;;;11.76;34.72
6224;BME280;3145;42.726;23.342;2023-03-14T08:54:32;95271.22;;;11.93;34.54
6224;BME280;3145;42.726;23.342;2023-03-14T08:56:59;95278.47;;;12.26;33.98
6224;BME280;3145;42.726;23.342;2023-03-14T08:59:25;95294.59;;;12.52;33.48
6224;BME280;3145;42.726;23.342;2023-03-14T09:01:52;95294.53;;;12.73;33.86
6224;BME280;3145;42.726;23.342;2023-03-14T09:04:21;95285.75;;;12.73;34.65
6224;BME280;3145;42.726;23.342;2023-03-14T09:06:48;95246.06;;;13.13;33.01
6224;BME280;3145;42.726;23.342;2023-03-14T09:09:14;95222.94;;;12.39;34.00
6224;BME280;3145;42.726;23.342;2023-03-14T09:11:42;95241.19;;;12.83;33.62
6224;BME280;3145;42.726;23.342;2023-03-14T09:14:08;95260.09;;;12.73;33.94
6224;BME280;3145;42.726;23.342;2023-03-14T09:16:35;95263.97;;;12.77;32.71
6224;BME280;3145;42.726;23.342;2023-03-14T09:19:02;95139.44;;;11.67;33.99
6224;BME280;3145;42.726;23.342;2023-03-14T09:21:30;95246.34;;;12.36;34.17
6224;BME280;3145;42.726;23.342;2023-03-14T09:23:57;95233.78;;;12.44;34.55
6224;BME280;3145;42.726;23.342;2023-03-14T09:26:24;95219.47;;;11.90;34.46
6224;BME280;3145;42.726;23.342;2023-03-14T09:28:51;95246.56;;;12.13;34.91
6224;BME280;3145;42.726;23.342;2023-03-14T09:31:18;95200.78;;;12.19;34.63
6224;BME280;3145;42.726;23.342;2023-03-14T09:33:44;95206.03;;;12.40;33.72
6224;BME280;3145;42.726;23.342;2023-03-14T09:36:11;95225.56;;;12.39;34.38
6224;BME280;3145;42.726;23.342;2023-03-14T09:38:40;95223.94;;;12.38;34.72
6224;BME280;3145;42.726;23.342;2023-03-14T09:41:15;95218.06;;;12.15;34.15
6224;BME280;3145;42.726;23.342;2023-03-14T09:43:43;95173.31;;;11.99;33.78
6224;BME280;3145;42.726;23.342;2023-03-14T09:46:12;95177.13;;;11.90;33.00
6224;BME280;3145;42.726;23.342;2023-03-14T09:48:41;95214.28;;;12.03;33.79
6224;BME280;3145;42.726;23.342;2023-03-14T09:51:13;95183.94;;;11.78;32.41
6224;BME280;3145;42.726;23.342;2023-03-14T09:53:44;95197.03;;;12.35;31.96
6224;BME280;3145;42.726;23.342;2023-03-14T09:56:13;95193.47;;;12.55;32.40
6224;BME280;3145;42.726;23.342;2023-03-14T09:58:46;95070.84;;;11.93;32.36
6224;BME280;3145;42.726;23.342;2023-03-14T10:01:17;95164.03;;;12.37;33.16
6224;BME280;3145;42.726;23.342;2023-03-14T10:03:47;95176.66;;;12.69;33.64
6224;BME280;3145;42.726;23.342;2023-03-14T10:06:15;95183.97;;;12.67;34.13
6224;BME280;3145;42.726;23.342;2023-03-14T10:08:44;95171.75;;;12.73;34.51
6224;BME280;3145;42.726;23.342;2023-03-14T10:11:14;95163.03;;;12.79;34.26
6224;BME280;3145;42.726;23.342;2023-03-14T10:13:50;95159.97;;;13.29;34.39
6224;BME280;3145;42.726;23.342;2023-03-14T10:16:29;95148.22;;;13.51;34.08
6224;BME280;3145;42.726;23.342;2023-03-14T10:19:02;95145.28;;;13.20;34.89
6224;BME280;3145;42.726;23.342;2023-03-14T10:21:30;95122.44;;;13.38;34.09
6224;BME280;3145;42.726;23.342;2023-03-14T10:24:10;95140.94;;;12.99;35.05
6224;BME280;3145;42.726;23.342;2023-03-14T10:26:43;95125.94;;;13.39;33.20
6224;BME280;3145;42.726;23.342;2023-03-14T10:29:11;95102.81;;;13.26;32.56
6224;BME280;3145;42.726;23.342;2023-03-14T10:31:47;95127.81;;;13.64;32.68
6224;BME280;3145;42.726;23.342;2023-03-14T10:34:17;95106.75;;;13.50;34.68
6224;BME280;3145;42.726;23.342;2023-03-14T10:36:44;95091.25;;;13.93;33.21
6224;BME280;3145;42.726;23.342;2023-03-14T10:39:32;95048.13;;;14.04;32.49
6224;BME280;3145;42.726;23.342;2023-03-14T10:42:09;95033.34;;;14.21;32.43
6224;BME280;3145;42.726;23.342;2023-03-14T10:44:38;95084.06;;;14.13;33.02
6224;BME280;3145;42.726;23.342;2023-03-14T10:47:06;95066.94;;;13.56;33.96
6224;BME280;3145;42.726;23.342;2023-03-14T10:49:34;95060.19;;;13.93;33.51
6224;BME280;3145;42.726;23.342;2023-03-14T10:52:12;95061.25;;;13.59;34.36
6224;BME280;3145;42.726;23.342;2023-03-14T10:54:41;95026.06;;;13.18;35.37
6224;BME280;3145;42.726;23.342;2023-03-14T10:57:11;95046.94;;;13.54;34.45
6224;BME280;3145;42.726;23.342;2023-03-14T10:59:39;95051.00;;;13.69;33.59
6224;BME280;3145;42.726;23.342;2023-03-14T11:05:18;94990.84;;;14.21;33.43
6224;BME280;3145;42.726;23.342;2023-03-14T11:07:48;94991.50;;;14.60;33.73
6224;BME280;3145;42.726;23.342;2023-03-14T11:10:20;94993.97;;;14.62;32.52
6224;BME280;3145;42.726;23.342;2023-03-14T11:13:02;95006.88;;;14.96;32.92
6224;BME280;3145;42.726;23.342;2023-03-14T11:15:34;94983.31;;;15.30;32.73
6224;BME280;3145;42.726;23.342;2023-03-14T11:18:30;94972.59;;;14.81;32.36
6224;BME280;3145;42.726;23.342;2023-03-14T11:21:08;94988.41;;;15.01;32.48
6224;BME280;3145;42.726;23.342;2023-03-14T11:23:42;94962.22;;;15.04;31.29
6224;BME280;3145;42.726;23.342;2023-03-14T11:26:26;94956.16;;;14.91;31.53
6224;BME280;3145;42.726;23.342;2023-03-14T11:28:57;94790.44;;;14.04;31.75
6224;BME280;3145;42.726;23.342;2023-03-14T11:31:27;94913.72;;;15.27;31.60
6224;BME280;3145;42.726;23.342;2023-03-14T11:33:56;94931.44;;;15.39;31.12
6224;BME280;3145;42.726;23.342;2023-03-14T11:36:30;94917.34;;;15.57;30.81
6224;BME280;3145;42.726;23.342;2023-03-14T11:38:58;94909.94;;;15.34;31.49
6224;BME280;3145;42.726;23.342;2023-03-14T11:41:30;94893.56;;;15.37;31.26
6224;BME280;3145;42.726;23.342;2023-03-14T11:44:02;94909.06;;;15.65;32.11
6224;BME280;3145;42.726;23.342;2023-03-14T11:46:34;94923.47;;;15.82;30.41
6224;BME280;3145;42.726;23.342;2023-03-14T11:49:05;94865.78;;;15.69;30.25
6224;BME280;3145;42.726;23.342;2023-03-14T11:51:35;94904.00;;;16.29;30.35
6224;BME280;3145;42.726;23.342;2023-03-14T11:54:07;94907.75;;;16.46;29.95
6224;BME280;3145;42.726;23.342;2023-03-14T11:56:44;94888.00;;;16.29;30.91
6224;BME280;3145;42.726;23.342;2023-03-14T11:59:16;94865.19;;;16.51;29.75
6224;BME280;3145;42.726;23.342;2023-03-14T12:01:51;94865.44;;;16.61;28.62
6224;BME280;3145;42.726;23.342;2023-03-14T12:04:24;94864.28;;;16.27;29.26
6224;BME280;3145;42.726;23.342;2023-03-14T12:06:56;94873.72;;;16.41;29.52
6224;BME280;3145;42.726;23.342;2023-03-14T12:09:24;94870.31;;;16.34;29.24
6224;BME280;3145;42.726;23.342;2023-03-14T12:11:55;94865.53;;;16.54;28.87
6224;BME280;3145;42.726;23.342;2023-03-14T12:14:25;94850.00;;;16.51;29.03
6224;BME280;3145;42.726;23.342;2023-03-14T12:16:54;94694.47;;;15.98;28.92
6224;BME280;3145;42.726;23.342;2023-03-14T12:19:30;94836.44;;;16.23;28.66
6224;BME280;3145;42.726;23.342;2023-03-14T12:22:01;94845.91;;;16.49;28.15
6224;BME280;3145;42.726;23.342;2023-03-14T12:24:34;94816.63;;;16.60;28.67
6224;BME280;3145;42.726;23.342;2023-03-14T12:27:05;94825.19;;;16.51;28.84
6224;BME280;3145;42.726;23.342;2023-03-14T12:29:57;94823.31;;;16.22;28.65
6224;BME280;3145;42.726;23.342;2023-03-14T12:32:25;94821.03;;;16.55;29.08
6224;BME280;3145;42.726;23.342;2023-03-14T12:34:52;94754.56;;;15.83;28.45
6224;BME280;3145;42.726;23.342;2023-03-14T12:37:37;94812.03;;;16.38;28.86
6224;BME280;3145;42.726;23.342;2023-03-14T12:40:17;94814.50;;;16.51;27.92
6224;BME280;3145;42.726;23.342;2023-03-14T12:42:57;94807.84;;;16.71;28.59
6224;BME280;3145;42.726;23.342;2023-03-14T12:45:27;94806.56;;;16.74;27.98
6224;BME280;3145;42.726;23.342;2023-03-14T12:48:10;94797.91;;;16.49;27.96
6224;BME280;3145;42.726;23.342;2023-03-14T12:50:43;94794.13;;;16.27;27.86
6224;BME280;3145;42.726;23.342;2023-03-14T12:59:30;94774.28;;;16.23;28.07
6224;BME280;3145;42.726;23.342;2023-03-14T13:02:01;94739.34;;;16.01;28.54
6224;BME280;3145;42.726;23.342;2023-03-14T13:04:32;94750.03;;;16.13;28.30
6224;BME280;3145;42.726;23.342;2023-03-14T13:07:01;94765.25;;;16.24;27.84
6224;BME280;3145;42.726;23.342;2023-03-14T13:10:02;94755.88;;;16.33;28.37
6224;BME280;3145;42.726;23.342;2023-03-14T13:12:37;94755.94;;;16.44;28.46
6224;BME280;3145;42.726;23.342;2023-03-14T13:15:15;94738.91;;;16.57;27.39
6224;BME280;3145;42.726;23.342;2023-03-14T13:17:44;94737.50;;;16.54;27.49
6224;BME280;3145;42.726;23.342;2023-03-14T13:20:16;94736.81;;;16.47;27.48
6224;BME280;3145;42.726;23.342;2023-03-14T13:22:47;94736.59;;;16.60;27.35
6224;BME280;3145;42.726;23.342;2023-03-14T13:25:14;94725.34;;;16.70;27.08
6224;BME280;3145;42.726;23.342;2023-03-14T13:27:44;94720.69;;;16.65;27.63
6224;BME280;3145;42.726;23.342;2023-03-14T13:30:18;94717.22;;;16.53;27.30
6224;BME280;3145;42.726;23.342;2023-03-14T13:32:46;94712.09;;;16.52;27.70
6224;BME280;3145;42.726;23.342;2023-03-14T13:35:16;94681.81;;;16.35;27.66